Weather observations for the past three days for
Bowie Municipal Airport
Imperial (Metric)
Date Time (cdt) Wind (mph) Vis. (mi.) Weather Sky Cond. Temperature (ºF) Relative Humidity Wind Chill (°F) Heat Index (°F) Pressure Precipitation (in)
Air Dwpt 6 hour altimeter (in) sea level (mb) 1 hr 3 hr 6 hr
Max. Min.
05 04:55 S 9 G 17 10.00 Fair CLR 69.6 63.1 80% 29.61 0.0
05 04:35 S 9 10.00 Fair CLR 69.8 63.1 80% 29.6 0.0
05 04:15 S 10 10.00 Fair CLR 70.2 63.1 79% 29.61 0.0
05 03:55 S 12 G 17 10.00 Fair CLR 70.3 63.1 78% 29.61 0.0
05 03:35 S 13 G 20 10.00 Fair CLR 70.7 63.1 77% 29.61 0.0
05 03:15 S 13 G 20 10.00 Fair CLR 70.7 63.1 77% 29.61 0.0
05 02:55 S 9 10.00 Fair CLR 70.7 63 77% 29.61 0.0
05 02:35 S 13 G 18 10.00 Fair CLR 71.1 63 76% 29.63 0.0
05 02:15 S 12 G 21 10.00 Fair CLR 71.4 63 75% 29.64 0.0
05 01:55 S 12 G 17 10.00 Fair CLR 71.6 63 74% 29.65 0.0
05 01:35 S 10 G 17 10.00 Fair CLR 70.9 63 76% 29.66 0.0
05 01:15 S 12 G 18 10.00 Fair CLR 70.9 63.1 77% 29.65 0.0
05 00:55 S 10 10.00 Fair CLR 70.7 63.3 79.2 70.7 78% 29.66 0.0
05 00:35 S 10 10.00 Fair CLR 70.7 63.1 77% 29.66 0.0
05 00:15 S 12 10.00 Fair CLR 71.2 63.1 76% 29.66 0.0
04 23:55 S 13 G 20 10.00 Fair CLR 71.6 63.1 75% 29.66 0.0
04 23:35 S 13 G 21 10.00 Fair CLR 71.6 63.1 75% 29.67 0.0
04 23:15 S 15 G 20 10.00 Fair CLR 72 63 73% 29.67 0.0
04 22:55 S 16 G 24 10.00 Fair CLR 72.5 63 72% 29.66 0.0
04 22:35 S 12 G 20 10.00 Fair CLR 72.5 63 72% 29.67 0.0
04 22:15 S 13 G 16 10.00 Fair CLR 72.5 62.8 72% 29.66 0.0
04 21:55 S 12 G 20 10.00 Fair CLR 73 62.6 70% 29.66 0.0
04 21:35 S 10 G 16 10.00 Fair CLR 73 62.8 70% 29.67 0.0
04 21:15 S 9 10.00 Fair CLR 73.4 63 70% 29.66 0.0
04 20:55 S 8 10.00 Fair CLR 73.6 63.1 70% 29.66 0.0
04 20:35 S 8 10.00 Fair CLR 74.3 63.1 68% 29.67 0.0
04 20:15 S 9 10.00 Fair CLR 75.4 63 65% 77 29.66 0.0
04 19:55 S 14 G 17 10.00 Fair CLR 76.6 63 63% 78 29.66 0.0
04 19:35 S 14 G 22 10.00 Fair CLR 77.2 63.1 62% 79 29.67 0.0
04 19:15 S 10 G 17 10.00 Fair CLR 78.1 63.5 61% 80 29.67 0.0
04 18:55 S 16 G 23 10.00 Fair CLR 79.2 63.3 82.6 74.1 58% 81 29.68 0.0
04 18:35 S 14 G 24 10.00 Fair CLR 80.1 63 56% 81 29.67 0.0
04 18:15 S 20 G 28 10.00 Fair CLR 80.1 62.4 55% 81 29.68 0.0
04 17:55 S 18 G 28 10.00 Fair CLR 80.8 62.2 53% 82 29.68 0.0
04 17:35 S 16 G 24 10.00 Fair CLR 82.4 63.1 52% 84 29.68 0.0
04 17:15 S 18 G 28 10.00 Fair CLR 82 62.2 51% 83 29.69 0.0
04 16:55 S 18 G 25 10.00 Fair CLR 81.9 61.9 51% 83 29.7 0.0
04 16:35 S 14 G 24 10.00 Fair CLR 81.7 62.2 52% 83 29.7 0.0
04 16:15 S 18 G 25 10.00 Fair CLR 81.5 61.9 51% 82 29.72 0.0
04 15:55 S 14 G 26 10.00 Fair CLR 80.8 61.9 53% 82 29.73 0.0
04 15:35 S 16 G 25 10.00 Fair CLR 80.6 61.9 53% 82 29.74 0.0
04 15:15 S 21 G 25 10.00 Fair and Breezy CLR 80.1 61.2 53% 81 29.75 0.0
04 14:55 S 17 G 26 10.00 Fair CLR 79.5 61.5 54% 81 29.76 0.0
04 14:35 S 18 G 24 10.00 Fair CLR 78.4 61 55% 80 29.77 0.0
04 14:15 S 17 G 24 10.00 Fair CLR 77.9 61.2 56% 79 29.78 0.0
04 13:55 S 17 G 25 10.00 Fair CLR 76.3 60.4 58% 78 29.79 0.0
04 13:35 S 18 G 24 10.00 Fair CLR 76.3 60.1 57% 78 29.81 0.0
04 13:15 S 16 G 20 10.00 Fair CLR 75.4 59.5 58% 78 29.82 0.0
04 12:55 S 17 G 24 10.00 Fair CLR 73.9 59.2 74.5 57 60% 29.82 0.0
04 12:35 S 16 G 25 10.00 Fair CLR 73.6 58.8 60% 29.83 0.0
04 12:15 S 18 G 24 10.00 Fair CLR 73 58.8 61% 29.84 0.0
04 11:55 S 16 G 22 10.00 Fair CLR 71.6 58.1 63% 29.84 0.0
04 11:35 S 16 G 23 10.00 Fair CLR 70.9 57.9 64% 29.85 0.0
04 11:15 S 16 G 22 10.00 Fair CLR 70 57.4 64% 29.86 0.0
04 10:55 S 17 G 24 10.00 Fair CLR 69.3 56.7 64% 29.86 0.0
04 10:35 S 16 G 25 10.00 Fair CLR 68.7 56.3 65% 29.86 0.0
04 10:15 S 17 G 25 10.00 Fair CLR 67.8 55.9 66% 29.87 0.0
04 09:55 S 14 G 24 10.00 Fair CLR 67.3 55.9 67% 29.87 0.0
04 09:35 S 15 G 20 10.00 Fair CLR 65.8 55.4 69% 29.87 0.0
04 09:15 S 16 G 22 10.00 Fair CLR 64 54.9 72% 29.88 0.0
04 08:55 S 14 G 21 10.00 Fair CLR 62.8 54.1 74% 29.87 0.0
04 08:35 S 10 G 18 10.00 Fair CLR 62.1 53.6 74% 29.87 0.0
04 08:15 S 10 G 16 10.00 Fair CLR 60.1 52.7 77% 29.87 0.0
04 07:55 S 10 10.00 Fair CLR 59.2 51.8 77% 29.87 0.0
04 07:35 S 8 10.00 Partly Cloudy SCT120 58.5 51.3 77% 29.87 0.0
04 07:15 S 9 10.00 Partly Cloudy SCT110 57.7 50.9 78% 29.87 0.0
04 06:55 S 7 10.00 Partly Cloudy SCT120 56.8 50.2 60.4 56.1 79% 29.87 0.0
04 06:35 S 8 10.00 Fair CLR 56.3 49.8 79% 29.87 0.0
04 06:15 S 6 10.00 Fair CLR 56.3 49.3 77% 29.87 0.0
04 05:55 S 7 10.00 Fair CLR 56.3 49.1 77% 29.87 0.0
04 05:35 S 7 10.00 Fair CLR 56.3 48.9 76% 29.88 0.0
04 05:15 S 7 10.00 Fair CLR 56.8 48.9 75% 29.89 0.0
04 04:55 S 7 10.00 Fair CLR 57 48.6 74% 29.89 0.0
04 04:35 S 6 10.00 Fair CLR 57 48.6 74% 29.88 0.0
04 04:15 S 5 10.00 Fair CLR 56.8 48.7 74% 29.89 0.0
04 03:55 S 6 10.00 Fair CLR 57.4 48.6 73% 29.9 0.0
04 03:35 S 6 10.00 Fair CLR 57.4 48.6 73% 29.9 0.0
04 03:15 S 6 10.00 Fair CLR 57.6 48.6 72% 29.9 0.0
04 02:55 S 7 10.00 Fair CLR 58.1 48.4 70% 29.91 0.0
04 02:35 S 7 10.00 Fair CLR 57.9 48.2 70% 29.92 0.0
04 02:15 S 7 10.00 Fair CLR 58.5 48.4 69% 29.93 0.0
04 01:55 S 8 10.00 Fair CLR 59.2 48.2 67% 29.94 0.0
04 01:35 S 8 10.00 Fair CLR 59.2 48.2 67% 29.95 0.0
04 01:15 S 8 10.00 Fair CLR 59.7 48.2 66% 29.95 0.0
04 00:55 S 8 10.00 Fair CLR 60.4 48 77 60.3 64% 29.96 0.0
04 00:35 S 8 10.00 Fair CLR 60.8 48 63% 29.97 0.0
04 00:15 S 9 10.00 Fair CLR 61 47.8 62% 29.97 0.0
03 23:55 S 7 10.00 Fair CLR 61.2 47.8 62% 29.97 0.0
03 23:35 S 7 10.00 Fair CLR 61.3 48 62% 29.98 0.0
03 23:15 S 6 10.00 Fair CLR 61.2 48.2 63% 29.99 0.0
03 22:55 S 5 10.00 Fair CLR 61.3 47.7 61% 29.99 0.0
03 22:35 S 5 10.00 Fair CLR 61.5 47.7 61% 29.99 0.0
03 22:15 S 3 10.00 Fair CLR 62.4 47.5 58% 29.98 0.0
03 21:55 S 3 10.00 Fair CLR 64 47.3 55% 29.98 0.0
03 21:35 S 5 10.00 Fair CLR 64.4 47.3 54% 29.98 0.0
03 21:15 S 3 10.00 Fair CLR 65.7 48 53% 29.97 0.0
03 20:55 S 3 10.00 Fair CLR 66.6 47.3 50% 29.97 0.0
03 20:35 S 3 10.00 Fair CLR 68.7 46.4 45% 29.97 0.0
03 20:15 S 3 10.00 Fair CLR 69.1 46.8 45% 29.97 0.0
03 19:55 S 5 10.00 Fair CLR 71.2 45.5 40% 29.97 0.0
03 19:35 S 9 10.00 Fair CLR 73.9 43.9 34% 29.97 0.0
03 19:15 S 10 10.00 Fair CLR 76.1 44.6 33% 77 29.98 0.0
03 18:55 SW 12 G 16 10.00 Fair CLR 77 42.6 80.1 76.5 29% 78 29.98 0.0
03 18:35 S 12 G 17 10.00 Fair CLR 76.6 43.3 31% 78 29.98 0.0
03 18:15 S 12 G 18 10.00 Fair CLR 77.9 42.3 28% 78 29.99 0.0
03 17:55 S 14 G 20 10.00 Fair CLR 78.6 43.2 28% 78 29.99 0.0
03 17:35 S 9 G 24 10.00 Fair CLR 79.2 45.3 30% 79 29.99 0.0
03 17:15 SW 10 G 21 10.00 Fair CLR 79.3 43.3 28% 79 30 0.0
03 16:55 S 12 G 20 10.00 Fair CLR 79.5 43 27% 79 30 0.0
03 16:35 S 12 G 16 10.00 Fair CLR 79.7 45 29% 79 30.01 0.0
03 16:15 S 14 G 20 10.00 Fair CLR 79.5 44.2 29% 79 30.02 0.0
03 15:55 SW 9 G 17 10.00 Fair CLR 79.7 46.9 32% 79 30.03 0.0
03 15:35 SW 12 G 21 10.00 Partly Cloudy SCT085 79.5 45.9 31% 79 30.05 0.0
03 15:15 SW 12 G 16 10.00 Fair CLR 79 46.4 32% 79 30.05 0.0
03 14:55 S 10 G 18 10.00 Fair CLR 79 46.2 32% 79 30.06 0.0
03 14:35 SW 12 G 16 10.00 Fair CLR 78.4 44.8 30% 78 30.07 0.0
03 14:15 S 13 G 20 10.00 Fair CLR 79 46.2 32% 79 30.08 0.0
03 13:55 SW 12 G 17 10.00 Partly Cloudy SCT075 78.3 45.1 31% 78 30.09 0.0
03 13:35 W 6 G 17 10.00 Partly Cloudy SCT075 76.8 46.4 34% 78 30.1 0.0
03 13:15 SW 14 G 18 10.00 Fair CLR 77.7 49.3 37% 78 30.11 0.0
03 12:55 SW 6 G 17 10.00 Fair CLR 77 48.9 77.2 49.3 37% 78 30.12 0.0
03 12:35 SW 12 G 16 10.00 Fair CLR 76.1 50 40% 78 30.13 0.0
03 12:15 SW 9 10.00 Fair CLR 75.7 50.7 42% 78 30.14 0.0
03 11:55 W 8 G 16 10.00 Fair CLR 75.2 50 41% 78 30.14 0.0
03 11:35 SW 12 G 18 10.00 Fair CLR 74.5 49.8 42% 30.15 0.0
03 11:15 W 10 10.00 Fair CLR 74.1 50.5 44% 30.15 0.0
03 10:55 W 7 10.00 Fair CLR 72.7 50.7 46% 30.15 0.0
03 10:35 W 12 G 16 10.00 Fair CLR 71.2 50.4 48% 30.15 0.0
03 10:15 W 9 G 16 10.00 Fair CLR 70.2 49.5 48% 30.15 0.0
03 09:55 W 7 10.00 Fair CLR 68.4 50.2 52% 30.15 0.0
03 09:35 SW 8 10.00 Fair CLR 65.7 51.3 60% 30.15 0.0
03 09:15 SW 7 10.00 Fair CLR 63.1 51.1 65% 30.14 0.0
03 08:55 SW 5 10.00 Fair CLR 60.3 51.8 74% 30.14 0.0
03 08:35 Calm 10.00 Fair CLR 57.6 51.8 81% 30.14 0.0
03 08:15 S 3 10.00 Fair CLR 55 50.2 84% 30.14 0.0
03 07:55 S 3 10.00 Fair CLR 53.4 49.1 85% 30.14 0.0
03 07:35 Calm 10.00 Fair CLR 51.4 47.8 88% 30.13 0.0
03 07:15 Calm 10.00 Fair CLR 50 47.3 91% 30.12 0.0
03 06:55 Calm 10.00 Fair CLR 49.5 46.9 54.3 48.6 91% 30.12 0.0
03 06:35 S 3 10.00 Fair CLR 49.3 46.9 92% 30.11 0.0
03 06:15 S 3 10.00 Fair CLR 48.7 47.1 94% 30.11 0.0
03 05:55 S 3 10.00 Fair CLR 49.1 47.5 94% 30.11 0.0
03 05:35 Calm 10.00 Fair CLR 50.2 47.7 91% 30.11 0.0
03 05:15 Calm 10.00 Fair CLR 50.2 47.7 91% 30.11 0.0
03 04:55 Calm 10.00 Fair CLR 50.9 48.2 91% 30.11 0.0
03 04:35 Calm 10.00 Fair CLR 50.9 48.6 92% 30.11 0.0
03 04:15 Calm 10.00 Fair CLR 50.5 48.4 92% 30.11 0.0
03 03:55 Calm 10.00 Fair CLR 51.1 48.4 91% 30.11 0.0
03 03:35 Calm 10.00 Fair CLR 51.8 49.1 91% 30.11 0.0
03 03:15 Calm 10.00 Fair CLR 51.6 49.1 91% 30.11 0.0
03 02:55 Calm 10.00 Fair CLR 51.8 49.3 91% 30.12 0.0
03 02:35 Calm 10.00 Fair CLR 51.8 49.3 91% 30.12 0.0
03 02:15 Calm 10.00 Fair CLR 52.2 49.1 89% 30.12 0.0
03 01:55 Calm 10.00 Fair CLR 53.2 49.1 86% 30.12 0.0
03 01:35 Calm 10.00 Fair CLR 52.2 49.6 91% 30.12 0.0
03 01:15 Calm 10.00 Fair CLR 53.8 49.5 85% 30.12 0.0
03 00:55 Calm 10.00 Fair CLR 54 49.3 73.6 54 84% 30.12 0.0
03 00:35 Calm 10.00 Fair CLR 54.7 49.1 82% 30.12 0.0
03 00:15 Calm 10.00 Fair CLR 55.2 49.5 81% 30.11 0.0
02 23:55 Calm 10.00 Fair CLR 56.1 49.3 78% 30.11 0.0
02 23:35 Calm 10.00 Fair CLR 56.7 49.1 76% 30.11 0.0
02 23:15 Calm 10.00 Fair CLR 57.7 49.5 74% 30.11 0.0
02 22:55 Calm 10.00 Fair CLR 58.3 49.1 72% 30.11 0.0
02 22:35 S 3 10.00 Fair CLR 59.4 48.6 68% 30.11 0.0
02 22:15 S 3 10.00 Fair CLR 58.3 49.3 72% 30.1 0.0
02 21:55 S 3 10.00 Fair CLR 58.6 50 73% 30.1 0.0
02 21:35 Calm 10.00 Fair CLR 60.1 50.2 70% 30.09 0.0
02 21:15 Calm 10.00 Fair CLR 61.3 50 66% 30.09 0.0
02 20:55 Calm 10.00 Fair CLR 62.2 51.8 69% 30.09 0.0
02 20:35 SW 3 10.00 Fair CLR 64.2 49.5 59% 30.08 0.0
02 20:15 Calm 10.00 Fair CLR 67.1 48.6 52% 30.08 0.0
02 19:55 Calm 10.00 Fair CLR 70.7 45.3 40% 30.08 0.0
02 19:35 Calm 10.00 Fair CLR 72 45.7 39% 30.08 0.0
02 19:15 Calm 10.00 Fair CLR 73.2 44.1 35% 30.08 0.0
02 18:55 W 3 10.00 Fair CLR 73.6 42.4 75 70.2 33% 30.08 0.0
02 18:35 W 3 10.00 Fair CLR 73.8 41.9 32% 30.09 0.0
02 18:15 W 5 10.00 Fair CLR 74.5 42.4 32% 30.09 0.0
02 17:55 NW 6 10.00 Partly Cloudy SCT090 74.5 41.9 31% 30.09 0.0
02 17:35 Calm 10.00 Partly Cloudy SCT100 73 41.2 32% 30.1 0.0
02 17:15 SW 6 10.00 Fair CLR 74.5 43 32% 30.1 0.0
02 16:55 W 6 10.00 Fair CLR 74.5 43.2 33% 30.11 0.0
02 16:35 W 7 10.00 Fair CLR 74.5 45.9 36% 30.12 0.0
02 16:15 W 6 10.00 Fair CLR 74.1 46.4 37% 30.12 0.0
02 15:55 SW 6 10.00 Fair CLR 74.3 47.3 38% 30.13 0.0
02 15:35 W 5 10.00 Fair CLR 73.6 46.4 38% 30.14 0.0
02 15:15 W 7 10.00 Partly Cloudy SCT065 73 46 38% 30.14 0.0
02 14:55 W 7 10.00 Fair CLR 73.4 45.5 37% 30.15 0.0
02 14:35 N 3 10.00 Fair CLR 72.7 43.9 36% 30.15 0.0
02 14:15 W 6 10.00 Partly Cloudy SCT060 71.2 44.8 39% 30.15 0.0
02 13:55 W 6 10.00 Partly Cloudy SCT060 SCT070 72 46.8 41% 30.16 0.0
02 13:35 W 7 10.00 Partly Cloudy SCT070 71.1 47.1 43% 30.17 0.0
02 13:15 NW 5 10.00 Fair CLR 70.5 46.9 43% 30.18 0.0
02 12:55 W 7 10.00 Fair CLR 70.2 45.9 70.5 45.1 42% 30.19 0.0
02 12:35 N 5 10.00 Fair CLR 69.6 46 43% 30.19 0.0
02 12:15 W 3 10.00 Fair CLR 68.9 46 44% 30.2 0.0
02 11:55 NW 5 10.00 Fair CLR 68.4 46.4 46% 30.2 0.0
02 11:35 W 6 10.00 Fair CLR 67.6 46.4 47% 30.2 0.0
02 11:15 Calm 10.00 Fair CLR 67.1 47.1 49% 30.2 0.0
02 10:55 NW 5 10.00 Fair CLR 66.2 45.3 47% 30.2 0.0
02 10:35 W 3 10.00 Fair CLR 65.8 46.6 50% 30.2 0.0
02 10:15 Calm 10.00 Fair CLR 64.4 46.6 53% 30.19 0.0
02 09:55 Calm 10.00 Fair CLR 63.3 45.5 52% 30.19 0.0
02 09:35 NW 5 10.00 Fair CLR 61.9 48.6 62% 30.19 0.0
02 09:15 W 5 10.00 Fair CLR 61 50.4 68% 30.19 0.0
02 08:55 NW 3 10.00 Fair CLR 59.4 49.5 70% 30.19 0.0
02 08:35 Calm 10.00 Fair CLR 57.4 49.8 76% 30.18 0.0
02 08:15 Calm 10.00 Fair CLR 54.9 50.2 84% 30.18 0.0
02 07:55 Calm 10.00 Fair CLR 50.9 48.2 91% 30.17 0.0
02 07:35 Calm 10.00 Fair CLR 47.8 46.2 94% 30.16 0.0
02 07:15 Calm 10.00 Fair CLR 45.9 44.6 95% 30.15 0.0
02 06:55 Calm 10.00 Fair CLR 45.9 44.4 50.9 45 95% 30.14 0.0
02 06:35 Calm 10.00 Fair CLR 45.7 44.6 96% 30.14 0.0
02 06:15 Calm 10.00 Fair CLR 45.5 44.2 95% 30.13 0.0
02 05:55 Calm 10.00 Fair CLR 45 44.2 97% 30.13 0.0
02 05:35 Calm 10.00 Fair CLR 45.1 44.2 97% 30.12 0.0
Date Time (cdt) Wind (mph) Vis. (mi.) Weather Sky Cond. Air Dwpt Max. Min. Relative Humidity Wind Chill (°F) Heat Index (°F) altimeter (in) sea level (mb) 1 hr 3 hr 6 hr
6 hour
Temperature (ºF) Pressure Precipitation (in)